Time;durP1;ratioP1;P1;durP2;ratioP2;P2;SDS_P1;SDS_P2;PMS_P1;PMS_P2;Temp;Humidity;BMP_temperature;BMP_pressure;BME280_temperature;BME280_humidity;BME280_pressure;Samples;Min_cycle;Max_cycle;Signal;HPM_P1;HPM_P2
2023/06/01 00:02:12;;;;;;;6.20;1.17;;;;;;;20.11;34.60;101134.94;5063906;28;20059;-72
2023/06/01 00:04:40;;;;;;;2.70;1.30;;;;;;;20.06;32.17;101124.47;5061946;28;20112;-70
2023/06/01 00:07:10;;;;;;;2.65;1.00;;;;;;;19.97;33.86;101129.75;5067705;27;20084;-71
2023/06/01 00:09:38;;;;;;;1.55;0.90;;;;;;;19.90;33.17;101128.03;5060705;28;20052;-72
2023/06/01 00:12:08;;;;;;;1.80;1.05;;;;;;;19.82;34.38;101122.81;5055730;28;20060;-72
2023/06/01 00:14:37;;;;;;;1.83;0.95;;;;;;;19.77;34.84;101112.31;5066446;28;20457;-72
2023/06/01 00:17:13;;;;;;;1.67;1.00;;;;;;;19.75;35.35;101116.69;5053447;28;20037;-72
2023/06/01 00:19:45;;;;;;;1.77;0.80;;;;;;;19.72;34.86;101124.56;5056358;28;20045;-71
2023/06/01 00:22:16;;;;;;;1.75;0.85;;;;;;;19.66;33.03;101125.41;5056902;28;20049;-72
2023/06/01 00:24:45;;;;;;;2.15;0.85;;;;;;;19.66;34.59;101116.69;5070607;28;20056;-72
2023/06/01 00:27:13;;;;;;;1.27;0.70;;;;;;;19.66;34.66;101120.16;5053356;28;20530;-73
2023/06/01 00:29:42;;;;;;;3.00;1.08;;;;;;;19.69;36.23;101121.06;5062812;28;20048;-73
2023/06/01 00:32:10;;;;;;;3.67;0.90;;;;;;;19.68;36.30;101128.06;5058636;28;20481;-73
2023/06/01 00:34:41;;;;;;;2.20;0.80;;;;;;;19.67;35.89;101115.78;5070590;28;20194;-72
2023/06/01 00:37:11;;;;;;;2.03;1.00;;;;;;;19.67;35.98;101111.41;5061978;28;20056;-72
2023/06/01 00:39:40;;;;;;;4.30;1.25;;;;;;;19.65;35.91;101114.91;5049686;28;20562;-73
2023/06/01 00:42:12;;;;;;;4.05;0.95;;;;;;;19.63;34.86;101119.28;5064609;28;20542;-72
2023/06/01 00:44:43;;;;;;;1.33;0.73;;;;;;;19.64;35.43;101110.56;5059078;28;20040;-72
2023/06/01 00:47:11;;;;;;;2.00;1.17;;;;;;;19.71;37.70;101109.69;5060594;28;20052;-76
2023/06/01 00:49:40;;;;;;;2.38;0.82;;;;;;;19.71;34.25;101107.06;5062751;28;20045;-73
2023/06/01 00:52:11;;;;;;;2.15;0.80;;;;;;;19.68;34.51;101107.06;5058205;28;20048;-72
2023/06/01 00:54:42;;;;;;;1.08;0.70;;;;;;;19.81;33.85;101103.56;5058373;28;20052;-73
2023/06/01 00:57:11;;;;;;;2.13;1.08;;;;;;;19.92;34.37;101102.63;5060617;28;20049;-74
2023/06/01 00:59:40;;;;;;;1.88;0.70;;;;;;;20.01;33.31;101106.09;5067510;28;20094;-72
2023/06/01 01:02:09;;;;;;;1.88;0.82;;;;;;;20.03;33.71;101108.72;5067203;28;20192;-72
2023/06/01 01:04:37;;;;;;;1.85;0.70;;;;;;;20.02;32.66;101099.06;5068041;28;20472;-72
2023/06/01 01:07:20;;;;;;;3.58;0.70;;;;;;;20.00;32.84;101100.88;5060316;28;20072;-72
2023/06/01 01:09:57;;;;;;;1.52;0.90;;;;;;;19.96;34.55;101101.75;5059289;28;20053;-72
2023/06/01 01:12:36;;;;;;;1.55;0.90;;;;;;;19.91;33.06;101095.66;5053661;28;20052;-73
2023/06/01 01:15:11;;;;;;;3.42;0.60;;;;;;;19.86;33.08;101098.28;5062932;28;20134;-72
2023/06/01 01:17:45;;;;;;;2.63;1.02;;;;;;;19.79;33.24;101094.81;5063791;28;20067;-72
2023/06/01 01:20:19;;;;;;;3.10;1.00;;;;;;;19.76;33.38;101088.69;5058527;28;20067;-72
2023/06/01 01:23:18;;;;;;;1.98;0.80;;;;;;;19.69;32.89;101093.06;5067822;28;20096;-72
2023/06/01 01:26:20;;;;;;;3.60;1.00;;;;;;;19.59;33.98;101096.56;5058536;28;20098;-72
2023/06/01 01:28:53;;;;;;;1.52;0.85;;;;;;;19.54;34.03;101098.31;5065855;28;20044;-72
2023/06/01 01:31:25;;;;;;;2.63;1.10;;;;;;;19.48;34.35;101103.59;5068476;28;20395;-73
2023/06/01 01:33:56;;;;;;;1.88;0.50;;;;;;;19.39;33.95;101100.09;5068045;28;21141;-72
2023/06/01 01:36:25;;;;;;;2.15;0.88;;;;;;;19.34;34.12;101093.97;5065254;28;20044;-70
2023/06/01 01:38:54;;;;;;;1.48;0.82;;;;;;;19.32;34.56;101098.34;5060959;28;20056;-71
2023/06/01 01:41:23;;;;;;;3.58;1.00;;;;;;;19.31;36.03;101096.63;5057083;28;20051;-72
2023/06/01 01:43:54;;;;;;;0.47;0.43;;;;;;;19.24;34.51;101098.38;5064230;28;20069;-74
2023/06/01 01:46:27;;;;;;;2.72;0.80;;;;;;;19.19;34.93;101099.22;5060879;28;20509;-71
2023/06/01 01:49:09;;;;;;;1.80;0.70;;;;;;;19.14;34.16;101099.25;5059078;28;20060;-72
2023/06/01 01:51:46;;;;;;;1.70;0.77;;;;;;;19.09;34.86;101094.88;5060588;28;20127;-71
2023/06/01 01:54:15;;;;;;;2.63;0.90;;;;;;;19.04;34.90;101111.47;5058970;28;20426;-71
2023/06/01 01:56:46;;;;;;;2.10;0.70;;;;;;;19.00;34.24;101103.63;5056993;28;20368;-71
2023/06/01 01:59:17;;;;;;;5.97;0.90;;;;;;;18.95;34.97;101106.25;5058595;28;20102;-70
2023/06/01 02:01:47;;;;;;;3.13;0.82;;;;;;;18.93;35.40;101101.88;5057711;28;20070;-71
2023/06/01 02:04:16;;;;;;;2.80;2.45;;;;;;;19.04;34.33;101108.00;5064786;28;20067;-71
2023/06/01 02:06:52;;;;;;;4.68;1.95;;;;;;;19.15;35.06;101102.72;5053460;28;20067;-72
2023/06/01 02:09:20;;;;;;;44.45;36.03;;;;;;;19.25;34.49;101101.88;5039280;28;20049;-70
2023/06/01 02:11:49;;;;;;;6.82;4.75;;;;;;;19.34;35.09;101101.84;5036622;28;20148;-70
2023/06/01 02:14:19;;;;;;;14.98;9.73;;;;;;;19.42;36.10;101105.34;5045419;28;20068;-71
2023/06/01 02:16:47;;;;;;;63.28;51.30;;;;;;;19.46;35.29;101107.06;5038977;28;20049;-71
2023/06/01 02:19:16;;;;;;;12.20;6.63;;;;;;;19.41;34.16;101103.59;5044306;28;20049;-71
2023/06/01 02:21:45;;;;;;;2.50;0.95;;;;;;;19.35;34.28;101106.22;5034201;28;20049;-71
2023/06/01 02:24:13;;;;;;;7.13;3.97;;;;;;;19.39;34.77;101117.59;5036981;28;20131;-70
2023/06/01 02:26:48;;;;;;;4.00;1.77;;;;;;;19.37;33.24;101116.72;5037599;28;20053;-71
2023/06/01 02:29:21;;;;;;;1.70;0.88;;;;;;;19.36;34.74;101122.84;5041668;28;20048;-71
2023/06/01 02:31:50;;;;;;;1.08;0.68;;;;;;;19.33;34.27;101118.47;5045616;28;20049;-71
2023/06/01 02:34:19;;;;;;;1.20;0.80;;;;;;;19.24;34.72;101126.34;5053082;28;20048;-72
2023/06/01 02:36:48;;;;;;;2.10;0.63;;;;;;;19.21;34.69;101121.09;5045345;28;20132;-71
2023/06/01 02:39:17;;;;;;;1.05;0.75;;;;;;;19.17;35.09;101124.59;5039875;28;20171;-72
2023/06/01 02:41:45;;;;;;;1.38;0.77;;;;;;;19.12;34.85;101121.09;5047566;28;20049;-71
2023/06/01 02:44:14;;;;;;;1.23;1.13;;;;;;;19.09;34.30;101128.97;5052192;28;20048;-71
2023/06/01 02:46:45;;;;;;;1.23;0.60;;;;;;;19.02;34.42;101125.47;5039926;28;20055;-72
2023/06/01 02:49:14;;;;;;;1.20;0.50;;;;;;;18.95;34.36;101124.59;5051371;28;20684;-71
2023/06/01 02:51:42;;;;;;;1.58;0.75;;;;;;;18.88;34.85;101121.97;5037603;28;20053;-72
2023/06/01 02:54:11;;;;;;;1.95;0.70;;;;;;;18.76;35.27;101113.19;5023518;28;20048;-72
2023/06/01 02:56:40;;;;;;;2.72;0.77;;;;;;;18.69;34.62;101116.66;5038332;28;20107;-72
2023/06/01 02:59:08;;;;;;;2.45;0.70;;;;;;;18.59;35.93;101115.75;5043997;28;20052;-72
2023/06/01 03:01:37;;;;;;;1.05;0.70;;;;;;;18.53;35.99;101113.16;5039812;28;20055;-71
2023/06/01 03:04:17;;;;;;;1.73;0.93;;;;;;;18.47;35.82;101118.34;5047029;28;20079;-75
2023/06/01 03:06:46;;;;;;;4.22;1.02;;;;;;;18.39;36.43;101120.06;5038988;28;20483;-73
2023/06/01 03:09:20;;;;;;;1.27;0.70;;;;;;;18.33;37.24;101123.56;5031756;28;20057;-74
2023/06/01 03:11:49;;;;;;;1.90;0.68;;;;;;;18.21;36.79;101113.91;5031733;28;20049;-73
2023/06/01 03:14:18;;;;;;;4.18;1.20;;;;;;;18.12;36.50;101118.22;5043314;28;20119;-75
2023/06/01 03:16:46;;;;;;;3.55;0.82;;;;;;;17.99;36.71;101119.91;5036541;28;20450;-73
2023/06/01 03:19:18;;;;;;;2.35;0.60;;;;;;;17.91;38.06;101122.50;5043909;28;20132;-74
2023/06/01 03:21:48;;;;;;;2.42;0.50;;;;;;;17.78;37.51;101121.53;5041667;28;20063;-73
2023/06/01 03:24:17;;;;;;;1.38;0.68;;;;;;;17.65;37.37;101117.06;5045031;28;20057;-74
2023/06/01 03:26:46;;;;;;;1.20;0.77;;;;;;;17.52;38.87;101126.59;5044662;28;20045;-72
2023/06/01 03:29:14;;;;;;;4.13;0.95;;;;;;;17.44;38.85;101127.41;5040992;28;20140;-72
2023/06/01 03:31:45;;;;;;;1.05;0.70;;;;;;;17.35;39.08;101125.59;5041873;28;20077;-72
2023/06/01 03:34:14;;;;;;;2.80;0.80;;;;;;;17.21;38.30;101133.34;5044899;28;20049;-72
2023/06/01 03:36:47;;;;;;;2.03;0.63;;;;;;;17.11;39.42;101139.34;5037279;28;20111;-71
2023/06/01 03:39:16;;;;;;;2.90;0.98;;;;;;;17.00;40.34;101146.22;5040353;28;20053;-72
2023/06/01 03:41:47;;;;;;;1.95;0.57;;;;;;;16.89;40.13;101144.38;5041438;28;20758;-72
2023/06/01 03:44:16;;;;;;;4.00;0.88;;;;;;;16.80;40.49;101144.28;5044461;28;20534;-71
2023/06/01 03:46:45;;;;;;;1.90;0.70;;;;;;;16.69;40.83;101141.50;5047104;28;20507;-72
2023/06/01 03:49:13;;;;;;;1.40;1.00;;;;;;;16.61;41.38;101137.09;5044478;28;20117;-72
2023/06/01 03:51:44;;;;;;;2.38;0.60;;;;;;;16.52;41.29;101138.72;5045696;28;20072;-73
2023/06/01 03:54:12;;;;;;;0.82;0.63;;;;;;;16.43;41.12;101141.25;5044896;28;20138;-73
2023/06/01 03:56:41;;;;;;;1.80;0.85;;;;;;;16.36;41.29;101149.00;5047714;28;20080;-73
2023/06/01 03:59:10;;;;;;;1.85;0.98;;;;;;;16.25;41.92;101148.84;5043463;28;20123;-72
2023/06/01 04:01:39;;;;;;;1.48;0.90;;;;;;;16.15;42.35;101152.19;5039685;28;20107;-71
2023/06/01 04:04:08;;;;;;;2.45;1.13;;;;;;;16.03;42.65;101150.28;5048412;28;20057;-71
2023/06/01 04:06:37;;;;;;;2.63;1.05;;;;;;;15.96;42.41;101157.16;5043007;28;20080;-71
2023/06/01 04:09:14;;;;;;;1.25;0.77;;;;;;;15.83;43.04;101158.75;5044007;27;20049;-71
2023/06/01 04:11:43;;;;;;;1.83;1.00;;;;;;;15.74;44.45;101166.44;5049048;28;20056;-70
2023/06/01 04:14:11;;;;;;;3.78;1.00;;;;;;;15.62;44.21;101167.09;5045013;28;20160;-70
2023/06/01 04:16:40;;;;;;;2.45;0.93;;;;;;;15.53;44.31;101172.19;5031409;28;20081;-70
2023/06/01 04:19:08;;;;;;;4.88;1.02;;;;;;;15.47;44.04;101178.16;5043197;28;20048;-70
2023/06/01 04:21:37;;;;;;;1.48;0.85;;;;;;;15.40;44.01;101180.66;5045659;28;20059;-69
2023/06/01 04:24:06;;;;;;;1.05;0.70;;;;;;;15.33;44.13;101189.22;5042568;28;20134;-69
2023/06/01 04:26:36;;;;;;;2.13;0.85;;;;;;;15.26;44.59;101189.09;5041300;28;20042;-70
2023/06/01 04:29:05;;;;;;;2.08;0.98;;;;;;;15.21;44.67;101189.88;5041954;28;20045;-73
2023/06/01 04:31:34;;;;;;;0.75;0.50;;;;;;;15.15;44.16;101201.06;5044251;28;20056;-70
2023/06/01 04:34:02;;;;;;;1.02;0.70;;;;;;;15.11;44.22;101198.38;5047544;28;20088;-70
2023/06/01 04:36:32;;;;;;;2.40;0.93;;;;;;;15.07;44.89;101202.66;5052693;28;20060;-70
2023/06/01 04:39:07;;;;;;;2.03;0.70;;;;;;;15.04;43.87;101207.81;5044970;28;20083;-71
2023/06/01 04:41:37;;;;;;;1.38;0.77;;;;;;;14.98;43.97;101203.38;5041418;28;20056;-71
2023/06/01 04:44:06;;;;;;;2.10;0.80;;;;;;;14.92;44.17;101205.00;5049598;28;20124;-70
2023/06/01 04:46:39;;;;;;;3.15;0.85;;;;;;;14.87;44.04;101203.19;5034855;28;20056;-71
2023/06/01 04:49:07;;;;;;;6.57;0.88;;;;;;;14.84;44.02;101208.34;5044922;28;20041;-71
2023/06/01 04:51:36;;;;;;;0.98;0.70;;;;;;;14.80;44.37;101206.50;5044007;28;20045;-70
2023/06/01 04:54:05;;;;;;;2.65;0.75;;;;;;;14.76;44.28;101204.69;5045940;28;20049;-69
2023/06/01 04:56:33;;;;;;;3.00;1.00;;;;;;;14.73;44.54;101207.25;5042741;28;20044;-71
2023/06/01 04:59:06;;;;;;;1.58;0.55;;;;;;;14.67;43.97;101212.31;5041892;28;20526;-68
2023/06/01 05:01:34;;;;;;;0.90;0.68;;;;;;;14.63;44.38;101215.72;5044138;28;20505;-69
2023/06/01 05:04:03;;;;;;;2.65;0.60;;;;;;;14.60;44.46;101226.06;5044476;28;20048;-68
2023/06/01 05:06:31;;;;;;;1.23;0.73;;;;;;;14.58;44.76;101217.34;5042956;28;20053;-69
2023/06/01 05:09:00;;;;;;;0.85;0.50;;;;;;;14.54;44.80;101225.91;5065595;27;20139;-68
2023/06/01 05:11:35;;;;;;;3.38;0.70;;;;;;;14.50;43.94;101214.56;5057387;28;20052;-69
2023/06/01 05:14:05;;;;;;;0.70;0.50;;;;;;;14.46;44.25;101212.75;5066064;28;20053;-70
2023/06/01 05:16:33;;;;;;;2.08;0.63;;;;;;;14.42;43.69;101210.91;5059027;28;20107;-72
2023/06/01 05:19:02;;;;;;;2.83;1.02;;;;;;;14.39;43.85;101219.53;5063542;28;20052;-70
2023/06/01 05:21:34;;;;;;;1.40;0.60;;;;;;;14.33;44.25;101211.59;5050602;28;20058;-70
2023/06/01 05:24:02;;;;;;;1.70;0.80;;;;;;;14.32;44.71;101220.25;5058573;28;20851;-70
2023/06/01 05:26:31;;;;;;;1.58;0.90;;;;;;;14.30;44.34;101219.34;5063860;28;20048;-69
2023/06/01 05:28:59;;;;;;;3.13;0.80;;;;;;;14.27;44.66;101223.59;5067717;28;20045;-70
2023/06/01 05:31:31;;;;;;;1.88;0.60;;;;;;;14.22;44.38;101210.47;5068421;28;20534;-69
2023/06/01 05:34:00;;;;;;;1.02;0.70;;;;;;;14.18;43.85;101221.69;5065616;28;20045;-68
2023/06/01 05:36:28;;;;;;;1.00;0.50;;;;;;;14.14;44.00;101214.66;5061895;28;20084;-70
2023/06/01 05:38:57;;;;;;;1.27;0.40;;;;;;;14.11;44.27;101215.47;5067750;28;20125;-69
2023/06/01 05:41:26;;;;;;;1.17;0.50;;;;;;;14.09;44.05;101224.06;5056729;28;20057;-69
2023/06/01 05:43:55;;;;;;;0.95;0.60;;;;;;;14.03;44.03;101233.47;5059021;28;20040;-68
2023/06/01 05:46:24;;;;;;;1.08;0.50;;;;;;;13.99;43.88;101222.97;5058372;28;20703;-69
2023/06/01 05:48:55;;;;;;;2.28;0.57;;;;;;;13.94;44.28;101225.47;5055306;28;20612;-69
2023/06/01 05:51:23;;;;;;;0.68;0.40;;;;;;;13.89;44.55;101224.50;5051796;28;20140;-69
2023/06/01 05:53:52;;;;;;;1.27;0.57;;;;;;;13.87;44.08;101230.50;5060454;28;20052;-68
2023/06/01 05:56:20;;;;;;;2.67;0.50;;;;;;;13.80;44.02;101229.47;5057108;28;20049;-69
2023/06/01 05:58:52;;;;;;;3.75;0.80;;;;;;;13.77;45.09;101229.41;5058417;28;20052;-69
2023/06/01 06:01:22;;;;;;;3.78;0.70;;;;;;;13.71;44.73;101224.06;5058036;28;20048;-69
2023/06/01 06:03:50;;;;;;;0.60;0.50;;;;;;;13.68;45.75;101234.38;5061032;28;20433;-69
2023/06/01 06:06:22;;;;;;;2.05;0.60;;;;;;;13.60;45.32;101226.38;5056100;28;20140;-69
2023/06/01 06:08:50;;;;;;;0.77;0.50;;;;;;;13.56;46.03;101235.84;5054239;28;20057;-68
2023/06/01 06:11:19;;;;;;;0.82;0.60;;;;;;;13.49;46.20;101236.53;5052320;28;20053;-68
2023/06/01 06:13:50;;;;;;;1.15;0.40;;;;;;;13.42;46.19;101242.41;5058452;28;20202;-68
2023/06/01 06:16:19;;;;;;;1.45;0.80;;;;;;;13.40;46.48;101242.38;5066895;28;20056;-70
2023/06/01 06:18:47;;;;;;;0.95;0.55;;;;;;;13.39;46.22;101237.13;5064662;28;20219;-70
2023/06/01 06:21:16;;;;;;;1.10;0.77;;;;;;;13.39;46.18;101244.94;5063902;28;20052;-70
2023/06/01 06:23:47;;;;;;;1.25;0.75;;;;;;;13.39;47.73;101257.91;5064955;28;20049;-70
2023/06/01 06:26:16;;;;;;;1.95;0.80;;;;;;;13.29;48.37;101251.59;5067148;28;20084;-70
2023/06/01 06:28:44;;;;;;;1.25;0.55;;;;;;;13.23;48.83;101248.81;5053092;28;20049;-70
2023/06/01 06:31:16;;;;;;;1.98;0.90;;;;;;;13.17;47.94;101249.53;5065122;28;20052;-70
2023/06/01 06:33:44;;;;;;;2.53;0.63;;;;;;;13.10;47.36;101250.22;5059047;28;20482;-70
2023/06/01 06:36:13;;;;;;;0.40;0.20;;;;;;;13.05;47.47;101250.91;5059837;28;20040;-69
2023/06/01 06:38:41;;;;;;;1.25;0.50;;;;;;;13.01;48.42;101244.78;5063284;28;20056;-70
2023/06/01 06:41:12;;;;;;;4.70;0.75;;;;;;;12.98;48.06;101255.94;5061877;28;20040;-70
2023/06/01 06:43:40;;;;;;;1.27;0.52;;;;;;;12.94;47.90;101248.91;5066296;28;20097;-70
2023/06/01 06:46:10;;;;;;;2.67;0.60;;;;;;;12.92;48.46;101244.53;5059102;28;20044;-70
2023/06/01 06:48:38;;;;;;;1.08;0.57;;;;;;;12.89;48.67;101252.22;5063495;28;20057;-70
2023/06/01 06:51:07;;;;;;;0.75;0.40;;;;;;;12.85;49.14;101247.75;5058625;28;20499;-70
2023/06/01 06:53:35;;;;;;;4.32;0.75;;;;;;;12.83;49.33;101246.81;5060814;28;20040;-70
2023/06/01 06:56:04;;;;;;;0.60;0.30;;;;;;;12.82;49.47;101247.69;5061405;28;20129;-70
2023/06/01 06:58:34;;;;;;;2.22;0.70;;;;;;;12.83;49.54;101252.03;5060090;28;20063;-69
2023/06/01 07:01:04;;;;;;;1.33;0.60;;;;;;;12.80;49.94;101252.81;5058472;28;20086;-70
2023/06/01 07:03:33;;;;;;;2.22;0.60;;;;;;;12.77;50.20;101256.22;5059975;28;20079;-69
2023/06/01 07:06:04;;;;;;;0.80;0.40;;;;;;;12.75;50.93;101252.69;5068469;28;20485;-70
2023/06/01 07:08:34;;;;;;;2.17;0.50;;;;;;;12.68;50.27;101255.94;5068267;28;20403;-69
2023/06/01 07:11:02;;;;;;;3.13;0.65;;;;;;;12.66;50.67;101264.53;5058716;28;20063;-70
2023/06/01 07:13:33;;;;;;;2.10;0.50;;;;;;;12.60;51.51;101257.47;5063061;28;20139;-69
2023/06/01 07:16:01;;;;;;;0.73;0.50;;;;;;;12.58;51.78;101259.13;5064659;28;20110;-71
2023/06/01 07:18:32;;;;;;;4.95;0.50;;;;;;;12.56;52.11;101263.41;5058838;28;20091;-70
2023/06/01 07:21:00;;;;;;;1.38;0.40;;;;;;;12.53;51.71;101261.59;5065058;28;20044;-70
2023/06/01 07:23:30;;;;;;;2.05;0.30;;;;;;;12.50;52.51;101265.78;5060778;28;20049;-69
2023/06/01 07:25:58;;;;;;;2.97;0.40;;;;;;;12.50;52.52;101277.06;5070927;28;20087;-69
2023/06/01 07:28:27;;;;;;;0.28;0.22;;;;;;;12.46;52.07;101271.72;5065231;28;20083;-69
2023/06/01 07:30:57;;;;;;;2.00;0.45;;;;;;;12.40;52.38;101264.66;5066433;28;20106;-69
2023/06/01 07:33:26;;;;;;;3.85;0.75;;;;;;;12.40;53.36;101268.97;5068637;28;20046;-70
2023/06/01 07:35:56;;;;;;;2.85;0.50;;;;;;;12.38;53.41;101270.63;5069458;28;20105;-71
2023/06/01 07:38:25;;;;;;;0.30;0.20;;;;;;;12.34;54.47;101265.31;5065415;28;20709;-71
2023/06/01 07:40:54;;;;;;;2.00;0.65;;;;;;;12.29;54.15;101261.72;5066981;28;20053;-70
2023/06/01 07:43:23;;;;;;;0.50;0.30;;;;;;;12.27;53.64;101265.09;5064922;28;20053;-70
2023/06/01 07:45:51;;;;;;;0.40;0.30;;;;;;;12.25;53.67;101262.44;5061408;28;20122;-70
2023/06/01 07:48:22;;;;;;;3.60;0.77;;;;;;;12.24;53.97;101258.13;5061053;28;20134;-70
2023/06/01 07:50:50;;;;;;;0.60;0.35;;;;;;;12.18;54.57;101251.84;5061857;28;20123;-70
2023/06/01 07:53:19;;;;;;;4.35;0.50;;;;;;;12.20;54.39;101250.19;5064337;28;20052;-71
2023/06/01 07:55:50;;;;;;;1.08;0.32;;;;;;;12.19;54.25;101254.50;5063662;28;20167;-70
2023/06/01 07:58:18;;;;;;;0.57;0.40;;;;;;;12.19;55.44;101253.63;5065177;28;20052;-71
2023/06/01 08:00:47;;;;;;;0.30;0.30;;;;;;;12.16;55.29;101259.56;5064773;28;20665;-70
2023/06/01 08:03:15;;;;;;;0.63;0.25;;;;;;;12.13;55.50;101255.19;5066953;28;20113;-70
2023/06/01 08:05:45;;;;;;;1.35;0.60;;;;;;;12.11;56.47;101245.59;5078706;28;20384;-70
2023/06/01 08:08:14;;;;;;;0.65;0.40;;;;;;;12.09;55.52;101237.75;5063991;28;20056;-70
2023/06/01 08:10:43;;;;;;;0.77;0.52;;;;;;;12.08;56.17;101250.69;5056672;28;20048;-71
2023/06/01 08:13:11;;;;;;;1.58;0.55;;;;;;;12.04;56.04;101243.63;5066833;28;20048;-70
2023/06/01 08:15:41;;;;;;;0.45;0.38;;;;;;;12.04;56.93;101248.81;5067193;28;20615;-69
2023/06/01 08:18:10;;;;;;;1.25;0.60;;;;;;;12.04;57.52;101248.81;5067135;28;20044;-69
2023/06/01 08:20:39;;;;;;;0.45;0.35;;;;;;;12.00;57.46;101255.63;5067200;28;20106;-69
2023/06/01 08:23:09;;;;;;;0.70;0.43;;;;;;;11.95;56.78;101252.88;5062835;28;20097;-70
2023/06/01 08:25:38;;;;;;;1.13;0.50;;;;;;;11.92;58.27;101257.97;5057381;28;20049;-70
2023/06/01 08:28:09;;;;;;;2.35;0.30;;;;;;;11.87;59.29;101259.56;5067699;28;20725;-69
2023/06/01 08:30:37;;;;;;;1.77;0.38;;;;;;;11.83;58.54;101254.19;5063065;28;20048;-69
2023/06/01 08:33:06;;;;;;;1.63;0.63;;;;;;;11.82;58.51;101261.09;5063148;28;20072;-69
2023/06/01 08:35:34;;;;;;;1.58;0.47;;;;;;;11.82;58.28;101263.69;5065586;28;20057;-70
2023/06/01 08:38:04;;;;;;;2.40;0.30;;;;;;;11.82;60.45;101276.66;5065470;28;20141;-70
2023/06/01 08:40:35;;;;;;;0.50;0.50;;;;;;;11.81;59.59;101261.03;5067638;28;20036;-69
2023/06/01 08:43:13;;;;;;;0.60;0.45;;;;;;;11.77;59.48;101265.22;5059485;28;20052;-70
2023/06/01 08:45:43;;;;;;;0.95;0.40;;;;;;;11.73;60.61;101268.56;5066638;28;20512;-70
2023/06/01 08:48:16;;;;;;;1.85;0.40;;;;;;;11.69;62.12;101266.69;5059934;28;20152;-70
2023/06/01 08:50:45;;;;;;;1.08;0.30;;;;;;;11.64;61.13;101258.78;5058101;28;20053;-70
2023/06/01 08:53:17;;;;;;;0.80;0.52;;;;;;;11.64;61.18;101270.84;5072827;28;20048;-70
2023/06/01 08:55:48;;;;;;;0.67;0.33;;;;;;;11.62;61.10;101264.72;5071083;28;20045;-70
2023/06/01 08:58:16;;;;;;;0.70;0.40;;;;;;;11.64;60.73;101263.06;5065980;28;20387;-70
2023/06/01 09:00:45;;;;;;;0.40;0.30;;;;;;;11.64;61.21;101274.31;5068639;28;20067;-69
2023/06/01 09:03:13;;;;;;;0.45;0.30;;;;;;;11.60;60.82;101272.44;5066195;28;20110;-69
2023/06/01 09:05:42;;;;;;;1.38;0.63;;;;;;;11.60;61.67;101262.09;5070466;28;20045;-69
2023/06/01 09:08:11;;;;;;;3.10;0.30;;;;;;;11.58;61.70;101262.88;5060974;28;20071;-69
2023/06/01 09:10:40;;;;;;;2.58;0.90;;;;;;;11.57;61.52;101259.41;5048623;28;20111;-69
2023/06/01 09:13:10;;;;;;;2.28;0.95;;;;;;;11.57;60.95;101267.19;5040993;28;20111;-69
2023/06/01 09:15:53;;;;;;;0.63;0.30;;;;;;;11.55;61.36;101267.97;5047349;28;20053;-69
2023/06/01 09:18:21;;;;;;;;;;;;;;;11.53;61.80;101266.19;5046401;28;20132;-70
2023/06/01 09:20:53;;;;;;;1.67;0.52;;;;;;;11.53;61.24;101266.19;5045295;28;20494;-69
2023/06/01 09:23:28;;;;;;;1.50;0.50;;;;;;;11.52;61.72;101266.13;5040060;28;20056;-70
2023/06/01 09:26:10;;;;;;;1.40;0.40;;;;;;;11.46;62.18;101261.63;5046361;28;20290;-69
2023/06/01 09:29:00;;;;;;;1.38;0.73;;;;;;;11.48;63.92;101267.75;5048185;28;20049;-69
2023/06/01 09:31:42;;;;;;;0.95;0.40;;;;;;;11.47;61.89;101265.09;5042438;28;20083;-69
2023/06/01 09:34:11;;;;;;;0.57;0.40;;;;;;;11.46;62.52;101259.03;5037503;28;20757;-69
2023/06/01 09:36:40;;;;;;;1.80;0.52;;;;;;;11.46;63.11;101269.41;5048255;28;20049;-70
2023/06/01 09:39:09;;;;;;;0.85;0.40;;;;;;;11.46;63.09;101264.22;5047103;28;20049;-70
2023/06/01 09:41:49;;;;;;;0.43;0.32;;;;;;;11.43;63.08;101264.13;5041299;28;20079;-69
2023/06/01 09:44:26;;;;;;;2.95;0.68;;;;;;;11.44;62.49;101260.69;5041982;28;20073;-69
2023/06/01 09:46:55;;;;;;;0.55;0.40;;;;;;;11.45;63.51;101257.28;5045915;28;20045;-69
2023/06/01 09:49:26;;;;;;;0.35;0.35;;;;;;;11.45;62.77;101252.09;5040042;28;20049;-69
2023/06/01 09:52:09;;;;;;;0.65;0.50;;;;;;;11.47;63.30;101257.31;5038737;28;20045;-70
2023/06/01 09:54:39;;;;;;;1.08;0.60;;;;;;;11.46;62.49;101251.25;5043016;28;20141;-70
2023/06/01 09:57:09;;;;;;;0.43;0.40;;;;;;;11.47;63.08;101252.13;5044244;28;20119;-70
2023/06/01 09:59:43;;;;;;;2.45;0.45;;;;;;;11.46;63.89;101259.03;5042201;28;20116;-69
2023/06/01 10:02:15;;;;;;;0.40;0.30;;;;;;;11.45;63.95;101251.19;5038264;28;20041;-69
2023/06/01 10:04:46;;;;;;;0.50;0.40;;;;;;;11.43;63.25;101261.53;5049422;28;20495;-69
2023/06/01 10:07:19;;;;;;;1.10;0.40;;;;;;;11.42;64.28;101254.56;5045148;28;20582;-69
2023/06/01 10:09:52;;;;;;;0.63;0.55;;;;;;;11.42;63.09;101257.16;5062456;28;20053;-69
2023/06/01 10:12:21;;;;;;;0.35;0.30;;;;;;;11.43;63.85;101258.94;5061311;28;20045;-69
2023/06/01 10:14:53;;;;;;;1.02;0.60;;;;;;;11.42;63.16;101261.47;5064990;28;20047;-69
2023/06/01 10:17:24;;;;;;;1.30;0.50;;;;;;;11.39;63.56;101251.88;5065108;28;20498;-69
2023/06/01 10:19:54;;;;;;;3.28;0.55;;;;;;;11.40;63.98;101256.22;5068986;28;20306;-69
2023/06/01 10:22:24;;;;;;;0.68;0.40;;;;;;;11.40;63.88;101256.22;5059765;28;20048;-70
2023/06/01 10:24:58;;;;;;;1.10;0.47;;;;;;;11.39;63.78;101251.88;5060935;28;20044;-69
2023/06/01 10:27:31;;;;;;;1.65;0.50;;;;;;;11.39;63.44;101261.38;5062595;28;20136;-69
2023/06/01 10:30:02;;;;;;;0.60;0.40;;;;;;;11.36;64.21;101263.84;5060853;28;20040;-70
2023/06/01 10:32:49;;;;;;;1.35;0.40;;;;;;;11.34;64.63;101261.22;5060101;28;20048;-69
2023/06/01 10:36:02;;;;;;;0.40;0.40;;;;;;;11.31;64.97;101254.22;5062144;28;20099;-69
2023/06/01 10:38:33;;;;;;;5.10;0.65;;;;;;;11.31;66.22;101266.28;5042851;28;20557;-69
2023/06/01 10:41:30;;;;;;;1.10;1.00;;;;;;;11.28;65.53;101268.75;5062821;28;20060;-70
2023/06/01 10:43:59;;;;;;;0.75;0.57;;;;;;;11.24;65.65;101265.16;5061354;28;20041;-70
2023/06/01 10:46:43;;;;;;;0.47;0.30;;;;;;;11.22;65.42;101266.81;5059666;28;20056;-69
2023/06/01 10:49:11;;;;;;;1.15;0.40;;;;;;;11.19;65.84;101258.09;5063869;28;20421;-70
2023/06/01 10:51:40;;;;;;;1.58;0.50;;;;;;;11.19;66.00;101265.84;5058325;28;20033;-69
2023/06/01 10:54:27;;;;;;;1.08;0.63;;;;;;;11.17;65.40;101262.31;5061034;28;20524;-69
2023/06/01 10:57:35;;;;;;;0.43;0.40;;;;;;;11.10;65.49;101266.41;5070332;28;20509;-69
2023/06/01 11:00:31;;;;;;;1.70;0.50;;;;;;;11.06;69.18;101262.84;4968132;28;20125;-69
2023/06/01 11:03:02;;;;;;;0.80;0.63;;;;;;;10.97;69.29;101265.09;4954210;28;20069;-69
2023/06/01 11:05:47;;;;;;;1.98;0.63;;;;;;;10.94;68.45;101271.88;5035166;28;20052;-70
2023/06/01 11:08:56;;;;;;;1.92;0.50;;;;;;;10.89;67.82;101267.38;5056992;28;20060;-69
2023/06/01 11:11:25;;;;;;;0.88;0.47;;;;;;;10.85;67.78;101269.81;5042802;28;20044;-70
2023/06/01 11:14:11;;;;;;;1.05;0.60;;;;;;;10.82;67.78;101264.53;5039232;28;20479;-69
2023/06/01 11:16:39;;;;;;;0.70;0.47;;;;;;;10.80;67.26;101271.38;5039277;28;20041;-69
2023/06/01 11:19:10;;;;;;;0.70;0.60;;;;;;;10.69;68.40;101268.38;5041247;28;20135;-69
2023/06/01 11:21:44;;;;;;;1.65;0.65;;;;;;;10.59;69.30;101268.88;5045368;28;20111;-69
2023/06/01 11:24:14;;;;;;;0.55;0.43;;;;;;;10.50;69.87;101269.38;5041143;28;20105;-69
2023/06/01 11:26:44;;;;;;;0.77;0.47;;;;;;;10.45;69.44;101265.75;5043926;28;20120;-69
2023/06/01 11:29:16;;;;;;;2.92;0.73;;;;;;;10.43;69.41;101265.69;5038079;28;20048;-69
2023/06/01 11:31:47;;;;;;;0.47;0.47;;;;;;;10.38;70.24;101259.47;5042130;28;20797;-69
2023/06/01 11:34:19;;;;;;;2.42;0.70;;;;;;;10.31;70.16;101265.22;5035273;28;20087;-70
2023/06/01 11:36:50;;;;;;;1.50;0.55;;;;;;;10.29;70.38;101268.59;5039473;28;20089;-68
2023/06/01 11:39:22;;;;;;;2.17;0.57;;;;;;;10.24;70.17;101265.78;5039450;28;20081;-69
2023/06/01 11:41:55;;;;;;;0.85;0.40;;;;;;;10.17;70.92;101268.91;5038824;28;20052;-70
2023/06/01 11:44:23;;;;;;;0.95;0.50;;;;;;;10.13;71.84;101261.91;5038908;28;20071;-68